»·PEaware :: N2710U KPDX-CZBB

N2710U :: KPDX-CZBB

FLIGHT INFORMATION

Flight Status: Arrived
Operator: Privately registered:
United States
More flights under this callsign
Pilot: Nathan P. (3026)
Aircraft: CESSNA T210 TURBO CENTURION
(T210)
More flights by this aircraft type
Origin: KPDX Portland Intl
United States
Destination: CZBB Boundary Bay
Canada
More flights between these airports :: More routes between these airports
Route: +PTLD1 BTG V287 OLM V165 HUH V23 CFQVZ
File this flight plan on PilotEdge
Remarks:
Altitude:
(Current/Filed)
8,000ft
Speed:
(Current/Filed)
140kts
Departed: 05-Nov-20 01:03 PM
Arrived: 05-Nov-20 02:40 PM
Distance/Time
Traveled:
210nm/1:37
Distance/Time
To Go:
Arrived

Flight Plot

Page will automatically refresh every two minutes.

Flight plan parsing failed; only flown route is shown


Map Options




Map Legend


Flown Route
Filed Route
Departure Airport
Arrival Airport
Navaid (VOR, NDB)
Fix

Horizontal Profiles

Position Reports

Time Latitude Longitude Heading Altitude Ground
Speed
05-Nov-20 12:46 45.585617 -122.579876 289 26ft 0kts
05-Nov-20 12:47 45.585617 -122.579876 289 26ft 0kts
05-Nov-20 12:48 45.585617 -122.579876 289 26ft 0kts
05-Nov-20 12:49 45.585617 -122.579876 289 26ft 0kts
05-Nov-20 12:50 45.585617 -122.579876 289 26ft 0kts
05-Nov-20 12:51 45.585617 -122.579876 289 26ft 0kts
05-Nov-20 12:52 45.585617 -122.579876 289 26ft 0kts
05-Nov-20 12:53 45.585617 -122.579876 289 26ft 0kts
05-Nov-20 12:54 45.585617 -122.579876 289 26ft 0kts
05-Nov-20 12:55 45.585617 -122.579876 289 26ft 0kts
05-Nov-20 12:56 45.587132 -122.579175 297 26ft 9kts
05-Nov-20 12:57 45.589305 -122.584708 299 26ft 21kts
05-Nov-20 12:58 45.591260 -122.589749 298 26ft 13kts
05-Nov-20 12:59 45.593398 -122.595201 300 26ft 17kts
05-Nov-20 13:00 45.594273 -122.597446 324 25ft 8kts
05-Nov-20 13:01 45.594868 -122.596546 77 26ft 17kts
05-Nov-20 13:02 45.585000 -122.571741 120 324ft 102kts
05-Nov-20 13:03 45.580685 -122.532457 73 1052ft 109kts
05-Nov-20 13:04 45.586396 -122.488107 73 1773ft 118kts
05-Nov-20 13:05 45.592231 -122.441137 74 2579ft 116kts
05-Nov-20 13:06 45.604351 -122.405612 348 3417ft 93kts
05-Nov-20 13:07 45.622303 -122.426481 314 4248ft 84kts
05-Nov-20 13:08 45.639477 -122.448925 312 5069ft 82kts
05-Nov-20 13:09 45.656206 -122.470897 309 5863ft 81kts
05-Nov-20 13:10 45.672594 -122.492447 310 6662ft 79kts
05-Nov-20 13:11 45.688310 -122.513081 308 7464ft 74kts
05-Nov-20 13:12 45.704356 -122.534221 308 8017ft 93kts
05-Nov-20 13:13 45.728251 -122.566161 311 8015ft 134kts
05-Nov-20 13:14 45.761448 -122.594324 343 8012ft 154kts
05-Nov-20 13:15 45.803200 -122.605186 342 8004ft 147kts
05-Nov-20 13:16 45.842510 -122.615022 342 8004ft 140kts
05-Nov-20 13:17 45.880815 -122.624592 342 7985ft 138kts
05-Nov-20 13:18 45.921536 -122.634902 346 7992ft 160kts
05-Nov-20 13:19 45.967244 -122.646267 348 7991ft 172kts
05-Nov-20 13:20 46.010971 -122.656922 342 7986ft 146kts
05-Nov-20 13:21 46.049873 -122.666799 341 7995ft 140kts
05-Nov-20 13:22 46.088288 -122.676508 341 8000ft 140kts
05-Nov-20 13:23 46.126515 -122.686158 340 8000ft 138kts
05-Nov-20 13:24 46.163674 -122.695693 340 7999ft 133kts
05-Nov-20 13:25 46.199120 -122.704664 340 7998ft 125kts
05-Nov-20 13:26 46.231287 -122.712699 339 8031ft 109kts
05-Nov-20 13:27 46.258847 -122.719555 337 8026ft 89kts
05-Nov-20 13:28 46.281012 -122.724991 336 7788ft 79kts
05-Nov-20 13:29 46.308088 -122.732065 340 7143ft 115kts
05-Nov-20 13:30 46.344023 -122.741756 343 6523ft 145kts
05-Nov-20 13:31 46.385928 -122.751905 345 6039ft 150kts
05-Nov-20 13:32 46.425680 -122.761734 344 6032ft 141kts
05-Nov-20 13:34 46.463887 -122.771510 344 6027ft 139kts
05-Nov-20 13:35 46.501959 -122.781238 344 6020ft 139kts
05-Nov-20 13:36 46.539899 -122.790921 344 6014ft 138kts
05-Nov-20 13:37 46.578023 -122.800659 344 6009ft 138kts
05-Nov-20 13:38 46.615859 -122.810338 344 6009ft 138kts
05-Nov-20 13:39 46.653678 -122.820028 344 6009ft 138kts
05-Nov-20 13:40 46.691466 -122.829723 344 6009ft 138kts
05-Nov-20 13:41 46.729373 -122.839463 344 6009ft 138kts
05-Nov-20 13:42 46.767347 -122.849242 343 6010ft 139kts
05-Nov-20 13:43 46.805364 -122.859042 343 6012ft 139kts
05-Nov-20 13:44 46.843742 -122.868944 343 6014ft 140kts
05-Nov-20 13:45 46.882262 -122.878893 343 6017ft 140kts
05-Nov-20 13:46 46.920785 -122.888862 343 6017ft 141kts
05-Nov-20 13:47 46.959618 -122.898931 343 6017ft 142kts
05-Nov-20 13:48 46.999893 -122.897943 357 6016ft 147kts
05-Nov-20 13:49 47.040857 -122.892555 358 6016ft 148kts
05-Nov-20 13:50 47.081845 -122.886978 358 6017ft 148kts
05-Nov-20 13:51 47.122961 -122.881354 358 6018ft 148kts
05-Nov-20 13:51 47.157152 -122.876673 358 6018ft 148kts
05-Nov-20 13:53 47.205189 -122.870089 358 6018ft 149kts
05-Nov-20 13:53 47.239683 -122.865377 358 6016ft 151kts
05-Nov-20 13:55 47.289144 -122.858604 359 6013ft 155kts
05-Nov-20 13:55 47.325422 -122.853602 359 6012ft 159kts
05-Nov-20 13:56 47.369908 -122.847447 0 6010ft 162kts
05-Nov-20 13:57 47.415062 -122.841173 0 6010ft 163kts
05-Nov-20 13:58 47.460369 -122.834886 0 6010ft 164kts
05-Nov-20 13:59 47.505776 -122.828588 1 6009ft 164kts
05-Nov-20 14:00 47.551114 -122.822291 1 6009ft 164kts
05-Nov-20 14:01 47.596652 -122.815952 1 6009ft 164kts
05-Nov-20 14:02 47.642212 -122.809600 1 6010ft 164kts
05-Nov-20 14:03 47.687788 -122.803237 1 6010ft 164kts
05-Nov-20 14:04 47.733212 -122.796884 1 6010ft 164kts
05-Nov-20 14:05 47.778766 -122.790537 0 6010ft 164kts
05-Nov-20 14:06 47.824350 -122.784215 1 6010ft 164kts
05-Nov-20 14:07 47.869965 -122.777794 0 6014ft 164kts
05-Nov-20 14:08 47.915330 -122.771382 359 6022ft 163kts
05-Nov-20 14:09 47.960603 -122.764975 359 6021ft 162kts
05-Nov-20 14:10 48.005731 -122.758608 358 6030ft 165kts
05-Nov-20 14:11 48.051752 -122.752057 358 6029ft 166kts
05-Nov-20 14:12 48.097711 -122.745502 358 6029ft 166kts
05-Nov-20 14:13 48.143785 -122.738936 358 6027ft 166kts
05-Nov-20 14:14 48.189705 -122.732389 358 6027ft 166kts
05-Nov-20 14:15 48.235663 -122.725821 358 6027ft 166kts
05-Nov-20 14:16 48.281721 -122.717316 1 6027ft 167kts
05-Nov-20 14:17 48.327677 -122.707560 1 6009ft 165kts
05-Nov-20 14:18 48.372885 -122.698231 1 6007ft 163kts
05-Nov-20 14:19 48.417814 -122.689002 1 6005ft 162kts
05-Nov-20 14:20 48.462681 -122.679770 1 6004ft 162kts
05-Nov-20 14:21 48.507321 -122.670571 1 6000ft 163kts
05-Nov-20 14:22 48.551905 -122.661382 2 5992ft 165kts
05-Nov-20 14:23 48.597812 -122.651882 3 5983ft 168kts
05-Nov-20 14:24 48.644500 -122.642155 4 5973ft 170kts
05-Nov-20 14:25 48.691599 -122.632338 4 5973ft 171kts
05-Nov-20 14:26 48.738612 -122.622547 4 5973ft 171kts
05-Nov-20 14:27 48.785760 -122.612714 4 5974ft 171kts
05-Nov-20 14:28 48.832871 -122.602869 4 5974ft 171kts
05-Nov-20 14:29 48.879779 -122.596312 331 5964ft 165kts
05-Nov-20 14:30 48.914906 -122.645626 310 5312ft 180kts
05-Nov-20 14:31 48.947896 -122.694626 311 4269ft 158kts
05-Nov-20 14:32 48.977966 -122.739473 312 3432ft 140kts
05-Nov-20 14:33 49.004660 -122.779486 313 2889ft 129kts
05-Nov-20 14:34 49.029679 -122.817148 314 2382ft 124kts
05-Nov-20 14:35 49.053933 -122.853751 314 1900ft 121kts
05-Nov-20 14:36 49.075520 -122.892359 288 1412ft 121kts
05-Nov-20 14:37 49.077607 -122.943537 271 776ft 104kts
05-Nov-20 14:38 49.077820 -122.981051 271 282ft 79kts
05-Nov-20 14:39 49.078576 -123.007855 308 13ft 32kts
05-Nov-20 14:40 49.080287 -123.008497 266 13ft 0kts
05-Nov-20 14:41 49.080287 -123.008497 266 13ft 0kts
05-Nov-20 14:42 49.080287 -123.008497 266 13ft 0kts
05-Nov-20 14:43 49.080287 -123.008497 266 13ft 0kts
05-Nov-20 14:44 49.080287 -123.008497 266 13ft 0kts
05-Nov-20 14:45 49.080287 -123.008497 266 13ft 0kts
05-Nov-20 14:46 49.080287 -123.008497 266 13ft 0kts
05-Nov-20 14:47 49.080287 -123.008497 266 13ft 0kts
05-Nov-20 14:48 49.080287 -123.008497 266 13ft 0kts
05-Nov-20 14:49 49.080287 -123.008497 266 13ft 0kts
05-Nov-20 14:50 49.080287 -123.008497 266 13ft 0kts
05-Nov-20 14:51 49.080287 -123.008497 266 13ft 0kts
05-Nov-20 14:52 49.080287 -123.008497 266 13ft 0kts
05-Nov-20 14:53 49.080287 -123.008497 266 13ft 0kts

Navigation Log

Ident Type
Flight plan parsing failed, navigation log unavailable